Time;durP1;ratioP1;P1;durP2;ratioP2;P2;SDS_P1;SDS_P2;PMS_P1;PMS_P2;Temp;Humidity;BMP_temperature;BMP_pressure;BME280_temperature;BME280_humidity;BME280_pressure;Samples;Min_cycle;Max_cycle;Signal;HPM_P1;HPM_P2
2022/01/12 00:01:42;;;;;;;5.23;1.30;;;;;;;-11.01;69.20;100956.61;1754133;79;21165;-46
2022/01/12 00:04:10;;;;;;;9.03;1.80;;;;;;;-11.02;69.31;100955.70;1785489;78;21121;-48
2022/01/12 00:06:36;;;;;;;6.03;0.90;;;;;;;-11.00;69.25;100952.80;1753417;79;21097;-47
2022/01/12 00:09:07;;;;;;;5.40;1.10;;;;;;;-11.01;69.28;100963.11;1785350;78;21062;-47
2022/01/12 00:11:34;;;;;;;3.87;1.20;;;;;;;-11.01;69.34;100947.50;1750271;79;21058;-47
2022/01/12 00:14:00;;;;;;;6.27;1.13;;;;;;;-11.04;69.23;100957.72;1773180;78;21056;-47
2022/01/12 00:16:27;;;;;;;3.10;0.70;;;;;;;-11.05;69.40;100955.92;1766204;78;21412;-48
2022/01/12 00:18:53;;;;;;;4.03;0.93;;;;;;;-11.05;69.34;100962.02;1764853;78;21025;-49
2022/01/12 00:21:19;;;;;;;5.50;0.93;;;;;;;-11.06;69.31;100955.06;1765313;78;21175;-47
2022/01/12 00:23:46;;;;;;;5.13;1.40;;;;;;;-11.11;69.29;100949.98;1766639;78;21071;-49
2022/01/12 00:26:25;;;;;;;4.97;1.40;;;;;;;-11.12;69.38;100946.89;1768053;78;21099;-48
2022/01/12 00:34:11;;;;;;;2.90;0.87;;;;;;;-11.11;69.19;100956.48;1684266;82;21062;-45
2022/01/12 00:36:37;;;;;;;7.87;1.33;;;;;;;-11.11;69.12;100964.28;1737189;79;21037;-48
2022/01/12 00:39:06;;;;;;;4.17;0.97;;;;;;;-11.13;69.10;100955.50;1768420;78;21358;-51
2022/01/12 00:41:33;;;;;;;5.03;1.10;;;;;;;-11.14;69.12;100953.70;1769197;78;21037;-48
2022/01/12 00:44:00;;;;;;;3.67;1.10;;;;;;;-11.13;69.19;100960.70;1763120;80;21022;-48
2022/01/12 00:46:28;;;;;;;4.17;0.97;;;;;;;-11.10;69.12;100956.58;1785287;77;21345;-48
2022/01/12 00:48:56;;;;;;;4.77;0.97;;;;;;;-11.08;69.11;100955.37;1783728;77;21016;-49
2022/01/12 00:51:26;;;;;;;6.70;1.47;;;;;;;-11.06;69.09;100953.77;1756979;79;20975;-45
2022/01/12 00:53:51;;;;;;;6.30;1.03;;;;;;;-11.03;69.06;100953.02;1790723;78;21161;-47
2022/01/12 00:56:17;;;;;;;5.33;1.10;;;;;;;-11.00;68.98;100957.10;1754729;79;20950;-46
2022/01/12 00:58:44;;;;;;;3.40;0.97;;;;;;;-11.02;69.02;100955.70;1787199;78;20891;-45
2022/01/12 01:01:11;;;;;;;2.27;0.80;;;;;;;-11.03;69.02;100955.22;1768866;78;21018;-47
2022/01/12 01:03:37;;;;;;;6.53;1.00;;;;;;;-11.02;68.99;100956.11;1784985;78;20957;-47
2022/01/12 01:06:07;;;;;;;3.03;0.80;;;;;;;-11.05;69.03;100955.52;1787832;78;21442;-50
2022/01/12 01:08:32;;;;;;;2.90;0.90;;;;;;;-11.04;69.19;100954.72;1757017;79;20911;-47
2022/01/12 01:10:59;;;;;;;5.70;1.43;;;;;;;-11.04;69.03;100959.92;1789160;78;20958;-49
2022/01/12 01:13:33;;;;;;;4.43;1.10;;;;;;;-11.05;69.07;100958.53;1740415;80;21540;-46
2022/01/12 01:26:54;;;;;;;;;;;;;;;-11.02;69.27;100956.11;1760218;79;20930;-49
2022/01/12 01:29:21;;;;;;;7.87;0.70;;;;;;;-11.01;69.40;100960.50;1773468;79;20420;-47
2022/01/12 01:31:47;;;;;;;4.53;1.10;;;;;;;-10.98;69.49;100960.29;1772509;78;21074;-49
2022/01/12 01:34:15;;;;;;;2.53;0.90;;;;;;;-10.98;69.30;100964.59;1765387;79;20903;-46
2022/01/12 01:36:47;;;;;;;6.60;0.90;;;;;;;-11.03;69.43;100968.62;1762901;79;20979;-48
2022/01/12 01:39:16;;;;;;;3.20;0.80;;;;;;;-11.01;69.74;100964.00;1788369;77;20909;-48
2022/01/12 01:54:59;;;;;;;4.20;0.60;;;;;;;-11.00;69.75;100967.10;1829971;75;21012;-48
2022/01/12 01:57:27;;;;;;;2.87;1.00;;;;;;;-11.01;69.96;100969.61;1827745;75;21054;-47
2022/01/12 01:59:53;;;;;;;5.00;0.90;;;;;;;-11.01;69.92;100965.30;1828077;76;21046;-48
2022/01/12 02:02:20;;;;;;;2.27;0.70;;;;;;;-10.97;70.04;100964.65;1828579;75;21436;-46
2022/01/12 02:04:46;;;;;;;4.03;0.80;;;;;;;-10.95;70.02;100968.24;1828131;76;21061;-46
2022/01/12 02:07:14;;;;;;;1.43;0.70;;;;;;;-10.91;69.99;100967.62;1832630;75;21152;-49
2022/01/12 02:09:41;;;;;;;6.47;0.80;;;;;;;-10.90;69.99;100964.22;1807629;76;21090;-48
2022/01/12 02:12:27;;;;;;;2.90;0.80;;;;;;;-10.87;69.97;100970.86;1829461;75;21105;-46
2022/01/12 02:14:55;;;;;;;4.03;0.70;;;;;;;-10.90;69.73;100964.62;1802621;76;21083;-49
2022/01/12 02:17:27;;;;;;;2.97;0.80;;;;;;;-10.91;70.11;100961.52;1834779;75;21193;-50
2022/01/12 02:36:26;;;;;;;;;;;;;;;-10.99;69.65;100977.09;1833627;75;21106;-46
2022/01/12 02:41:26;;;;;;;5.80;1.00;;;;;;;-11.01;69.24;100977.41;1828107;75;21039;-46
2022/01/12 02:54:50;;;;;;;2.87;0.70;;;;;;;-11.11;69.07;100961.28;1832476;75;21143;-48
2022/01/12 02:57:16;;;;;;;4.60;0.87;;;;;;;-11.10;69.08;100968.68;1835991;75;21831;-50
2022/01/12 03:00:04;;;;;;;3.87;0.87;;;;;;;-11.07;69.06;100977.07;1829137;76;21864;-49
2022/01/12 03:02:26;;;;;;;4.40;0.68;;;;;;;-11.10;68.98;100970.88;1829587;75;21156;-49
2022/01/12 03:07:37;;;;;;;3.07;1.00;;;;;;;-11.00;69.03;100961.00;1828430;75;21156;-49
2022/01/12 03:10:04;;;;;;;9.77;1.00;;;;;;;-11.00;68.89;100959.70;1832316;77;21491;-48
2022/01/12 03:12:39;;;;;;;6.43;0.83;;;;;;;-11.01;68.85;100958.80;1817361;77;20951;-47
2022/01/12 03:15:06;;;;;;;2.03;0.80;;;;;;;-11.03;68.83;100960.81;1831863;75;20996;-49
2022/01/12 03:17:34;;;;;;;5.87;0.70;;;;;;;-11.05;68.91;100951.63;1829852;76;21073;-48
2022/01/12 03:20:02;;;;;;;1.50;0.70;;;;;;;-11.01;68.99;100965.70;1834703;75;21129;-46
2022/01/12 03:22:31;;;;;;;1.40;0.70;;;;;;;-10.99;68.87;100961.50;1827724;75;21122;-49
2022/01/12 03:24:57;;;;;;;4.07;0.70;;;;;;;-11.00;68.60;100959.30;1832308;75;21524;-49
2022/01/12 03:27:26;;;;;;;4.37;0.90;;;;;;;-11.03;68.67;100964.72;1828548;75;21496;-48
2022/01/12 03:29:55;;;;;;;2.40;0.70;;;;;;;-11.07;68.66;100961.07;1827839;75;21086;-47
2022/01/12 03:32:26;;;;;;;2.63;0.90;;;;;;;-11.10;68.72;100959.18;1831638;75;22663;-46
2022/01/12 03:34:55;;;;;;;2.83;0.80;;;;;;;-11.10;68.68;100956.58;1828320;75;21128;-46
2022/01/12 04:08:48;;;;;;;2.50;0.80;;;;;;;-11.96;69.01;100962.81;1833947;76;21138;-48
2022/01/12 04:11:15;;;;;;;4.53;0.70;;;;;;;-12.05;69.01;100962.25;1828919;77;20911;-48
2022/01/12 04:13:42;;;;;;;3.30;0.70;;;;;;;-12.05;69.12;100958.36;1812278;76;20978;-48
2022/01/12 04:16:11;;;;;;;5.53;0.90;;;;;;;-12.05;68.86;100961.36;1833012;75;20954;-47
2022/01/12 04:18:38;;;;;;;3.37;0.70;;;;;;;-12.10;68.81;100965.39;1836498;75;21345;-47
2022/01/12 04:21:08;;;;;;;4.33;0.80;;;;;;;-12.14;68.91;100964.29;1835597;75;21514;-48
2022/01/12 04:23:35;;;;;;;3.33;0.80;;;;;;;-12.18;68.92;100957.54;1812383;75;20952;-46
2022/01/12 04:26:10;;;;;;;6.77;1.70;;;;;;;-12.22;68.79;100967.22;1831445;75;20920;-46
2022/01/12 04:28:41;;;;;;;3.08;0.78;;;;;;;-12.29;68.76;100952.98;1834515;75;20891;-49
2022/01/12 04:31:08;;;;;;;3.63;0.70;;;;;;;-12.36;68.88;100951.72;1835497;76;20967;-48
2022/01/12 04:33:35;;;;;;;6.53;0.97;;;;;;;-12.39;69.00;100955.81;1830350;76;21024;-48
2022/01/12 04:36:02;;;;;;;8.80;1.80;;;;;;;-12.43;68.85;100953.45;1833210;76;20943;-46
2022/01/12 04:38:30;;;;;;;2.77;0.80;;;;;;;-12.48;68.73;100952.65;1835149;75;20915;-46
2022/01/12 04:40:57;;;;;;;3.37;0.90;;;;;;;-12.54;68.84;100958.36;1834076;75;20964;-47
2022/01/12 04:43:24;;;;;;;3.03;0.80;;;;;;;-12.55;68.86;100957.86;1826549;75;21077;-49
2022/01/12 04:50:50;;;;;;;4.87;0.80;;;;;;;-12.62;68.76;100962.58;1836434;75;21248;-49
2022/01/12 04:53:18;;;;;;;4.80;0.83;;;;;;;-12.66;68.57;100969.25;1832662;75;20943;-47
2022/01/12 04:55:46;;;;;;;4.70;0.90;;;;;;;-12.70;68.68;100971.17;1831699;76;21129;-49
2022/01/12 04:58:14;;;;;;;3.40;0.97;;;;;;;-12.74;68.62;100966.18;1804514;76;21124;-48
2022/01/12 05:00:41;;;;;;;6.53;1.00;;;;;;;-12.74;68.65;100975.66;1831390;75;21542;-48
2022/01/12 05:13:54;;;;;;;6.10;1.20;;;;;;;-12.82;68.58;100971.68;1827288;75;22369;-48
2022/01/12 05:16:21;;;;;;;8.60;1.83;;;;;;;-12.80;68.36;100976.58;1829907;75;21023;-46
2022/01/12 05:18:49;;;;;;;14.73;2.20;;;;;;;-12.80;68.32;100983.05;1829397;75;21549;-46
2022/01/12 05:21:17;;;;;;;11.40;1.80;;;;;;;-12.79;68.32;100983.16;1828858;76;21542;-48
2022/01/12 05:23:43;;;;;;;13.00;2.17;;;;;;;-12.75;68.36;100991.61;1835934;77;20939;-49
2022/01/12 05:26:10;;;;;;;9.80;1.57;;;;;;;-12.71;68.18;100991.02;1832817;77;21436;-46
2022/01/12 05:28:39;;;;;;;10.93;1.43;;;;;;;-12.66;68.14;100990.90;1835590;75;21151;-46
2022/01/12 05:31:09;;;;;;;6.80;1.30;;;;;;;-12.64;67.93;100984.12;1808116;77;21073;-47
2022/01/12 05:33:36;;;;;;;5.33;1.23;;;;;;;-12.62;67.76;100990.70;1831713;77;21124;-47
2022/01/12 05:36:05;;;;;;;13.23;1.50;;;;;;;-12.65;67.64;100982.72;1833952;75;21103;-48
2022/01/12 05:38:34;;;;;;;8.10;1.43;;;;;;;-12.68;67.54;100985.14;1835516;75;21011;-48
2022/01/12 05:41:04;;;;;;;5.50;1.50;;;;;;;-12.71;67.38;100990.13;1833852;77;21010;-48
2022/01/12 05:43:32;;;;;;;5.53;1.47;;;;;;;-12.74;67.38;100983.44;1811883;77;20900;-48
2022/01/12 05:46:09;;;;;;;3.67;1.07;;;;;;;-12.75;67.36;100989.02;1843106;75;20923;-47
2022/01/12 05:51:14;;;;;;;7.72;1.30;;;;;;;-12.76;67.11;100989.81;1832643;75;30106;-48
2022/01/12 05:53:41;;;;;;;9.43;1.77;;;;;;;-12.80;67.00;100986.95;1831482;75;21500;-48
2022/01/12 05:56:08;;;;;;;6.60;1.30;;;;;;;-12.85;67.03;100980.58;1805410;75;21027;-47
2022/01/12 05:58:35;;;;;;;7.23;1.13;;;;;;;-12.86;67.04;100986.16;1829359;76;21027;-49
2022/01/12 06:01:01;;;;;;;8.73;1.40;;;;;;;-12.87;66.88;100979.19;1833293;77;21085;-47
2022/01/12 06:03:28;;;;;;;4.27;1.10;;;;;;;-12.89;66.93;100982.47;1830338;75;21031;-47
2022/01/12 06:05:54;;;;;;;5.23;1.13;;;;;;;-12.89;66.89;100998.02;1815245;75;21089;-48
2022/01/12 06:08:21;;;;;;;7.07;1.03;;;;;;;-12.91;66.82;100993.13;1771715;78;21131;-48
2022/01/12 06:10:47;;;;;;;5.47;1.00;;;;;;;-12.96;66.65;101000.63;1763674;80;21046;-47
2022/01/12 06:13:15;;;;;;;4.27;1.73;;;;;;;-13.02;66.72;100998.55;1763072;79;21080;-49
2022/01/12 06:15:43;;;;;;;6.00;0.97;;;;;;;-13.02;66.69;101001.14;1765092;78;21076;-47
2022/01/12 06:18:10;;;;;;;8.23;1.20;;;;;;;-13.04;66.64;101004.42;1761957;80;21107;-46
2022/01/12 06:20:37;;;;;;;5.63;1.33;;;;;;;-13.06;66.62;101004.31;1791881;78;21030;-47
2022/01/12 06:23:12;;;;;;;6.27;1.43;;;;;;;-13.08;66.68;101003.31;1792349;78;21069;-49
2022/01/12 06:25:40;;;;;;;6.47;0.87;;;;;;;-13.08;66.62;101002.02;1788483;78;21667;-49
2022/01/12 06:28:22;;;;;;;6.13;1.67;;;;;;;-13.08;66.66;101002.02;1764589;79;21436;-49
2022/01/12 06:33:23;;;;;;;;;;;;;;;-13.07;66.44;101003.81;1764461;78;21101;-47
2022/01/12 06:35:49;;;;;;;9.53;1.20;;;;;;;-13.12;66.51;101006.52;1792510;77;20357;-45
2022/01/12 06:38:16;;;;;;;8.93;1.60;;;;;;;-13.10;66.55;101010.51;1765813;79;22058;-48
2022/01/12 06:40:43;;;;;;;8.03;1.57;;;;;;;-13.11;66.52;101012.20;1791680;78;21593;-47
2022/01/12 06:43:10;;;;;;;4.63;1.67;;;;;;;-13.10;66.43;101007.48;1789981;78;21306;-48
2022/01/12 06:45:39;;;;;;;9.73;1.63;;;;;;;-13.13;66.37;101009.90;1787191;78;21116;-47
2022/01/12 06:48:06;;;;;;;12.70;2.53;;;;;;;-13.14;66.37;101008.53;1788276;78;21025;-48
2022/01/12 06:50:33;;;;;;;9.47;1.73;;;;;;;-13.13;66.48;101015.52;1788901;79;20887;-47
2022/01/12 06:52:59;;;;;;;8.10;1.70;;;;;;;-13.09;66.43;101020.05;1791559;77;21512;-46
2022/01/12 06:55:25;;;;;;;5.37;1.57;;;;;;;-13.07;66.44;101014.17;1798007;77;20886;-47
2022/01/12 06:57:52;;;;;;;11.07;2.10;;;;;;;-13.01;66.43;101014.96;1792920;77;20894;-48
2022/01/12 07:00:18;;;;;;;8.53;1.93;;;;;;;-12.98;66.25;101013.88;1787939;77;22127;-48
2022/01/12 07:02:44;;;;;;;6.53;1.27;;;;;;;-12.96;66.21;101016.58;1797012;77;21070;-47
2022/01/12 07:05:12;;;;;;;8.93;2.20;;;;;;;-12.96;66.15;101014.88;1792174;77;21235;-50
2022/01/12 07:07:38;;;;;;;9.03;1.67;;;;;;;-12.95;66.04;101022.27;1790390;77;21449;-47
2022/01/12 07:10:08;;;;;;;5.77;1.60;;;;;;;-12.98;66.08;101021.66;1795413;77;20903;-47
2022/01/12 07:12:36;;;;;;;7.63;1.70;;;;;;;-12.97;66.01;101027.34;1794097;78;21521;-48
2022/01/12 07:15:04;;;;;;;7.90;1.93;;;;;;;-13.02;65.92;101026.16;1774636;78;21721;-50
2022/01/12 07:17:31;;;;;;;8.33;2.50;;;;;;;-13.07;65.98;101025.84;1774985;78;21320;-50
2022/01/12 07:20:00;;;;;;;6.90;1.90;;;;;;;-13.10;66.07;101029.52;1774325;78;22519;-49
2022/01/12 07:22:26;;;;;;;8.50;1.63;;;;;;;-13.06;66.18;101028.94;1769692;78;21538;-47
2022/01/12 07:24:54;;;;;;;6.93;2.03;;;;;;;-13.02;66.07;101027.45;1772461;78;21454;-49
2022/01/12 07:27:21;;;;;;;9.83;2.40;;;;;;;-13.01;66.33;101027.52;1764569;79;21123;-48
2022/01/12 07:29:47;;;;;;;7.07;1.67;;;;;;;-12.99;66.44;101022.84;1774734;78;21039;-47
2022/01/12 07:32:13;;;;;;;12.90;2.40;;;;;;;-12.95;66.47;101032.63;1779209;79;21034;-47
2022/01/12 07:34:40;;;;;;;7.73;2.07;;;;;;;-12.92;66.50;101037.59;1767459;78;21026;-47
2022/01/12 07:37:06;;;;;;;6.37;1.83;;;;;;;-12.90;66.47;101032.12;1764341;78;21042;-49
2022/01/12 07:39:32;;;;;;;8.90;1.60;;;;;;;-12.86;66.24;101030.63;1766020;78;21033;-48
2022/01/12 07:41:59;;;;;;;11.00;2.23;;;;;;;-12.83;66.28;101027.82;1781610;78;21037;-48
2022/01/12 07:44:27;;;;;;;7.60;1.97;;;;;;;-12.76;66.15;101022.22;1773228;79;21151;-47
2022/01/12 07:46:54;;;;;;;10.30;1.90;;;;;;;-12.69;65.76;101026.13;1761925;78;21575;-45
2022/01/12 07:49:21;;;;;;;10.40;2.30;;;;;;;-12.64;65.79;101028.61;1763660;78;21040;-46
2022/01/12 07:51:47;;;;;;;6.30;1.23;;;;;;;-12.60;65.95;101024.13;1768697;78;21484;-45
2022/01/12 07:54:14;;;;;;;10.13;2.03;;;;;;;-12.57;65.69;101020.41;1775867;78;21488;-45
2022/01/12 07:56:40;;;;;;;7.00;1.10;;;;;;;-12.55;65.35;101024.41;1775201;78;21477;-47
2022/01/12 07:59:06;;;;;;;7.53;1.70;;;;;;;-12.56;65.64;101020.91;1769162;80;21869;-48
2022/01/12 08:01:33;;;;;;;11.67;2.53;;;;;;;-12.55;65.22;101027.89;1744289;80;21070;-45
2022/01/12 08:03:59;;;;;;;6.13;1.17;;;;;;;-12.56;65.18;101027.39;1764085;78;21146;-46
2022/01/12 08:06:26;;;;;;;8.43;1.40;;;;;;;-12.54;65.33;101019.31;1747428;80;21035;-47
2022/01/12 08:08:52;;;;;;;2.87;1.10;;;;;;;-12.55;64.92;101019.21;1763420;78;21086;-48
2022/01/12 08:11:19;;;;;;;3.13;0.97;;;;;;;-12.62;64.85;101019.63;1747789;80;21085;-46
2022/01/12 08:13:45;;;;;;;6.17;1.03;;;;;;;-12.69;64.94;101020.95;1762743;78;21060;-48
2022/01/12 08:16:12;;;;;;;7.73;1.57;;;;;;;-12.75;65.01;101021.43;1768774;78;21110;-49
2022/01/12 08:18:39;;;;;;;9.17;1.10;;;;;;;-12.82;65.08;101019.64;1767976;78;20978;-47
2022/01/12 08:21:06;;;;;;;5.53;1.17;;;;;;;-12.83;65.34;101019.14;1771183;78;21094;-50
2022/01/12 08:23:34;;;;;;;6.67;1.43;;;;;;;-12.76;65.39;101020.06;1764612;78;21076;-44
2022/01/12 08:26:00;;;;;;;7.37;1.10;;;;;;;-12.70;65.10;101021.34;1767274;78;21766;-49
2022/01/12 08:28:26;;;;;;;8.63;1.20;;;;;;;-12.70;65.27;101023.04;1767559;78;21504;-49
2022/01/12 08:30:53;;;;;;;6.53;1.30;;;;;;;-12.62;65.25;101021.83;1763940;78;21042;-46
2022/01/12 08:33:19;;;;;;;5.33;1.30;;;;;;;-12.59;65.07;101022.03;1763891;78;21087;-47
2022/01/12 08:35:45;;;;;;;7.73;1.70;;;;;;;-12.59;65.18;101017.25;1767659;78;21173;-50
2022/01/12 08:38:11;;;;;;;6.53;1.47;;;;;;;-12.56;65.23;101020.02;1751550;80;21047;-47
2022/01/12 08:40:38;;;;;;;8.73;1.17;;;;;;;-12.54;65.15;101024.91;1767481;79;21118;-47
2022/01/12 08:43:05;;;;;;;8.57;1.67;;;;;;;-12.52;65.09;101008.64;1753998;80;21086;-49
2022/01/12 08:45:31;;;;;;;6.57;1.70;;;;;;;-12.55;64.87;101016.22;1750722;80;21017;-49
2022/01/12 08:47:59;;;;;;;7.93;2.57;;;;;;;-12.55;65.06;101024.41;1756750;78;21073;-48
2022/01/12 08:50:25;;;;;;;5.53;1.53;;;;;;;-12.55;65.16;101012.33;1759483;78;21113;-48
2022/01/12 08:52:51;;;;;;;7.50;1.50;;;;;;;-12.51;65.07;101006.55;1760746;79;21133;-50
2022/01/12 08:55:20;;;;;;;3.63;1.10;;;;;;;-12.48;65.13;101013.61;1759325;79;21611;-50
2022/01/12 08:57:46;;;;;;;2.77;0.83;;;;;;;-12.44;68.37;101011.72;1760414;79;21369;-49
2022/01/12 09:00:14;;;;;;;5.73;0.90;;;;;;;-12.36;68.64;101024.37;1756939;79;22691;-49
2022/01/12 09:02:40;;;;;;;6.17;1.20;;;;;;;-12.34;68.10;101008.50;1762026;79;21100;-47
2022/01/12 09:05:07;;;;;;;4.37;1.37;;;;;;;-12.28;68.34;101011.47;1758120;79;21465;-48
2022/01/12 09:07:34;;;;;;;5.53;0.97;;;;;;;-12.20;68.07;101008.45;1759364;79;22228;-50
2022/01/12 09:10:01;;;;;;;6.70;1.10;;;;;;;-12.12;67.40;101005.52;1754654;80;21587;-47
2022/01/12 09:12:27;;;;;;;2.33;0.67;;;;;;;-12.09;66.58;100994.44;1759111;79;21450;-48
2022/01/12 09:14:54;;;;;;;5.37;0.70;;;;;;;-12.07;66.50;100986.31;1762324;78;21621;-48
2022/01/12 09:17:21;;;;;;;2.07;0.60;;;;;;;-12.07;65.25;100995.00;1756443;79;21558;-48
2022/01/12 09:19:48;;;;;;;5.37;0.70;;;;;;;-12.08;65.51;100981.95;1756843;79;22266;-48
2022/01/12 09:22:14;;;;;;;5.77;1.03;;;;;;;-12.02;65.49;100992.30;1757768;79;21090;-49
2022/01/12 09:24:42;;;;;;;6.70;1.30;;;;;;;-11.91;64.63;100984.73;1755668;79;21061;-48
2022/01/12 09:27:08;;;;;;;7.13;1.37;;;;;;;-11.89;64.53;100974.45;1756413;78;22332;-47
2022/01/12 09:29:35;;;;;;;4.33;1.00;;;;;;;-11.78;64.75;100977.30;1757590;79;22410;-49
2022/01/12 09:32:02;;;;;;;12.40;1.50;;;;;;;-11.65;64.41;100970.67;1756724;79;21901;-48
2022/01/12 09:34:29;;;;;;;2.67;1.00;;;;;;;-11.54;64.23;100971.31;1757001;79;21092;-46
2022/01/12 09:36:55;;;;;;;3.40;0.90;;;;;;;-11.42;63.97;100967.25;1756659;78;21081;-47
2022/01/12 09:39:21;;;;;;;2.07;0.70;;;;;;;-11.32;63.50;100974.38;1757065;80;21554;-48
2022/01/12 09:41:47;;;;;;;5.10;0.70;;;;;;;-11.37;62.43;100965.39;1756779;79;21125;-47
2022/01/12 09:44:15;;;;;;;2.90;0.80;;;;;;;-11.44;62.13;100968.45;1759455;80;21057;-47
2022/01/12 09:46:41;;;;;;;4.37;0.80;;;;;;;-11.54;62.05;100965.72;1755303;79;21076;-50
2022/01/12 09:49:08;;;;;;;5.67;1.10;;;;;;;-11.62;62.23;100973.46;1753964;80;21061;-49
2022/01/12 09:51:34;;;;;;;5.47;1.93;;;;;;;-11.67;62.30;100973.61;1755952;80;21100;-47
2022/01/12 09:54:01;;;;;;;3.97;0.83;;;;;;;-11.71;62.49;100974.22;1754860;79;23278;-47
2022/01/12 09:56:29;;;;;;;2.97;1.17;;;;;;;-11.65;62.90;100975.00;1754325;80;22085;-49
2022/01/12 09:58:59;;;;;;;4.10;0.90;;;;;;;-11.51;62.96;100971.50;1754657;79;21546;-48
2022/01/12 10:01:30;;;;;;;7.07;0.80;;;;;;;-11.43;62.73;100964.15;1757622;79;21565;-48
2022/01/12 10:04:12;;;;;;;3.00;0.80;;;;;;;-11.37;62.74;100951.50;1757978;79;20973;-48
2022/01/12 10:06:49;;;;;;;6.90;0.80;;;;;;;-11.29;62.61;100952.44;1758821;80;21086;-48
2022/01/12 10:09:19;;;;;;;3.90;0.80;;;;;;;-11.22;62.62;100958.47;1760889;79;20942;-47
2022/01/12 10:12:04;;;;;;;2.67;0.73;;;;;;;-11.12;62.57;100952.09;1765254;79;20928;-46
2022/01/12 10:14:49;;;;;;;3.83;0.80;;;;;;;-11.06;62.38;100952.46;1776788;78;21229;-46
2022/01/12 10:17:20;;;;;;;2.63;0.67;;;;;;;-11.04;61.93;100949.52;1768700;78;21028;-47
2022/01/12 10:19:47;;;;;;;3.70;0.80;;;;;;;-11.08;61.65;100954.47;1773169;78;21704;-48
2022/01/12 10:22:17;;;;;;;4.73;1.17;;;;;;;-11.19;61.35;100951.26;1785322;78;22114;-45
2022/01/12 10:24:45;;;;;;;2.93;0.90;;;;;;;-11.21;61.64;100948.56;1768201;79;21064;-47
2022/01/12 10:27:18;;;;;;;2.20;0.90;;;;;;;-11.16;61.61;100952.34;1769538;79;21660;-45
2022/01/12 10:29:46;;;;;;;7.10;1.30;;;;;;;-11.14;61.48;100945.91;1785716;78;21328;-46
2022/01/12 10:32:16;;;;;;;7.20;1.20;;;;;;;-11.12;61.46;100933.89;1786979;78;21106;-46
2022/01/12 10:34:46;;;;;;;8.20;1.40;;;;;;;-11.08;61.13;100946.27;1788426;78;21007;-48
2022/01/12 10:37:15;;;;;;;4.30;0.90;;;;;;;-11.16;60.99;100943.64;1768421;79;21585;-46
2022/01/12 10:39:44;;;;;;;5.40;1.40;;;;;;;-11.16;61.34;100943.25;1773046;79;20959;-46
2022/01/12 10:42:13;;;;;;;7.93;1.30;;;;;;;-11.15;61.04;100942.84;1788313;77;21556;-46
2022/01/12 10:44:44;;;;;;;5.37;1.43;;;;;;;-11.19;61.21;100944.77;1773026;78;21120;-45
2022/01/12 10:47:16;;;;;;;8.90;1.83;;;;;;;-11.15;61.40;100941.54;1778149;78;21554;-47
2022/01/12 10:49:47;;;;;;;5.20;1.27;;;;;;;-11.07;61.53;100942.87;1772216;78;20929;-47
2022/01/12 10:52:14;;;;;;;3.10;1.03;;;;;;;-10.99;61.50;100936.39;1762244;78;21072;-46
2022/01/12 10:54:45;;;;;;;3.90;1.40;;;;;;;-10.91;61.27;100945.52;1771585;78;21079;-46
2022/01/12 10:57:28;;;;;;;4.73;1.00;;;;;;;-10.90;61.13;100940.81;1769248;79;21072;-47
2022/01/12 11:00:22;;;;;;;2.80;1.00;;;;;;;-10.87;61.12;100930.95;1754400;78;20993;-47
2022/01/12 11:02:54;;;;;;;7.13;1.67;;;;;;;-10.84;61.05;100935.04;1767172;79;20903;-47
2022/01/12 11:05:23;;;;;;;1.87;0.77;;;;;;;-10.84;61.03;100933.33;1763291;80;21349;-48
2022/01/12 11:07:50;;;;;;;4.23;1.40;;;;;;;-10.84;60.95;100928.13;1786659;78;21127;-47
2022/01/12 11:10:19;;;;;;;4.57;0.87;;;;;;;-10.81;61.16;100924.41;1790500;77;21072;-45
2022/01/12 11:12:47;;;;;;;2.77;0.80;;;;;;;-10.75;60.67;100921.23;1771439;79;21491;-48
2022/01/12 11:15:17;;;;;;;5.57;0.77;;;;;;;-10.74;60.97;100919.13;1765781;78;20965;-46
2022/01/12 11:17:45;;;;;;;2.83;0.70;;;;;;;-10.68;61.14;100927.66;1762902;78;21008;-47
2022/01/12 11:20:25;;;;;;;3.17;0.87;;;;;;;-10.58;61.37;100918.25;1789621;77;21053;-45
2022/01/12 11:23:07;;;;;;;3.07;0.90;;;;;;;-10.47;60.69;100921.03;1769573;79;21083;-47
2022/01/12 11:25:39;;;;;;;3.03;0.70;;;;;;;-10.50;60.86;100910.05;1771501;78;21381;-50
2022/01/12 11:28:23;;;;;;;3.43;0.90;;;;;;;-10.49;60.70;100916.14;1771252;79;22195;-48
2022/01/12 11:30:58;;;;;;;2.08;0.50;;;;;;;-10.51;60.75;100908.25;1771848;79;21161;-46
2022/01/12 11:33:37;;;;;;;4.13;0.87;;;;;;;-10.51;60.90;100911.26;1776361;78;21049;-46
2022/01/12 11:36:07;;;;;;;3.90;1.07;;;;;;;-10.45;60.93;100911.58;1768729;78;21080;-47
2022/01/12 11:38:35;;;;;;;6.13;1.00;;;;;;;-10.40;60.88;100916.64;1763634;78;21527;-49
2022/01/12 11:41:23;;;;;;;2.30;0.80;;;;;;;-10.38;60.68;100915.92;1767661;79;21038;-47
2022/01/12 11:43:56;;;;;;;6.27;0.90;;;;;;;-10.38;60.74;100909.41;1764299;78;21022;-47
2022/01/12 11:46:25;;;;;;;3.15;0.80;;;;;;;-10.34;60.57;100906.14;1761282;78;21049;-46
2022/01/12 11:48:55;;;;;;;3.00;1.30;;;;;;;-10.34;60.34;100910.45;1759173;78;21186;-45
2022/01/12 11:51:42;;;;;;;3.97;0.87;;;;;;;-10.38;60.08;100918.52;1763303;78;21060;-46
2022/01/12 11:54:18;;;;;;;3.70;1.00;;;;;;;-10.44;60.37;100914.67;1764079;78;20871;-46
2022/01/12 11:56:57;;;;;;;2.83;0.93;;;;;;;-10.48;60.15;100911.03;1759811;78;21451;-45
2022/01/12 11:59:28;;;;;;;3.20;0.80;;;;;;;-10.56;60.23;100921.44;1789506;78;21045;-46
2022/01/12 12:02:12;;;;;;;3.50;1.00;;;;;;;-10.67;60.33;100919.05;1787966;78;21120;-48
2022/01/12 12:04:39;;;;;;;4.30;1.23;;;;;;;-10.71;60.89;100918.87;1787666;78;21091;-48
2022/01/12 12:07:12;;;;;;;4.77;1.07;;;;;;;-10.64;60.84;100917.93;1738543;79;21033;-48
2022/01/12 12:09:57;;;;;;;10.43;1.10;;;;;;;-10.61;60.64;100915.06;1790120;78;21081;-49
2022/01/12 12:12:21;;;;;;;4.53;1.30;;;;;;;-10.64;60.63;100906.22;1789945;78;21284;-49
2022/01/12 12:14:53;;;;;;;2.27;0.77;;;;;;;-10.64;60.68;100905.81;1794073;78;21381;-47
2022/01/12 12:17:21;;;;;;;6.67;1.37;;;;;;;-10.60;60.87;100903.85;1791503;78;21973;-46
2022/01/12 12:19:48;;;;;;;3.70;1.20;;;;;;;-10.53;60.73;100902.47;1790791;78;20937;-47
2022/01/12 12:22:27;;;;;;;4.37;1.10;;;;;;;-10.52;60.77;100897.35;1792355;78;20994;-48
2022/01/12 12:25:04;;;;;;;5.60;1.10;;;;;;;-10.48;60.87;100891.92;1791258;78;21283;-46
2022/01/12 12:27:32;;;;;;;6.60;1.10;;;;;;;-10.43;60.65;100886.53;1792438;78;20941;-48
2022/01/12 12:29:58;;;;;;;4.23;0.80;;;;;;;-10.41;60.72;100879.71;1789222;78;21666;-50
2022/01/12 12:32:45;;;;;;;4.00;0.80;;;;;;;-10.39;60.67;100878.09;1788770;78;21834;-47
2022/01/12 12:35:18;;;;;;;5.07;1.20;;;;;;;-10.36;60.51;100884.73;1792503;78;20903;-47
2022/01/12 12:37:51;;;;;;;4.55;0.90;;;;;;;-10.41;60.15;100875.80;1789137;78;20958;-48
2022/01/12 12:40:26;;;;;;;3.90;0.97;;;;;;;-10.47;60.18;100876.80;1791046;78;21071;-48
2022/01/12 12:43:06;;;;;;;4.43;1.03;;;;;;;-10.52;60.15;100873.03;1791873;78;20989;-49
2022/01/12 12:45:51;;;;;;;6.20;1.10;;;;;;;-10.55;60.17;100868.98;1791852;78;20957;-47
2022/01/12 12:48:24;;;;;;;;;;;;;;;-10.60;60.20;100873.03;1796006;78;20898;-47
2022/01/12 12:51:02;;;;;;;4.43;1.00;;;;;;;-10.65;60.38;100874.11;1790564;78;20145;-47
2022/01/12 12:53:29;;;;;;;5.93;1.00;;;;;;;-10.66;60.43;100872.31;1778165;79;22243;-48
2022/01/12 12:55:56;;;;;;;2.47;0.80;;;;;;;-10.66;60.38;100876.62;1764123;79;21107;-50
2022/01/12 12:58:24;;;;;;;3.73;1.10;;;;;;;-10.68;60.45;100878.23;1763447;80;20903;-49
2022/01/12 13:00:51;;;;;;;5.50;1.17;;;;;;;-10.66;60.38;100883.12;1767121;79;20918;-49
2022/01/12 13:03:17;;;;;;;6.00;0.90;;;;;;;-10.66;60.44;100884.42;1759470;78;21484;-48
2022/01/12 13:05:44;;;;;;;4.77;1.30;;;;;;;-10.64;60.41;100886.70;1755934;78;21142;-49
2022/01/12 13:08:11;;;;;;;6.10;0.87;;;;;;;-10.63;60.36;100884.16;1760651;78;21084;-48
2022/01/12 13:10:37;;;;;;;5.17;0.80;;;;;;;-10.60;60.21;100884.74;1757138;78;21085;-48
2022/01/12 13:13:06;;;;;;;4.43;1.10;;;;;;;-10.63;60.00;100892.41;1788250;78;21128;-48
2022/01/12 13:15:40;;;;;;;2.37;0.90;;;;;;;-10.68;60.12;100886.94;1787807;78;21041;-47
2022/01/12 13:18:15;;;;;;;6.10;1.83;;;;;;;-10.72;60.15;100896.70;1792171;78;20903;-48
2022/01/12 13:23:34;;;;;;;6.50;1.30;;;;;;;-10.74;60.15;100886.21;1770910;78;21457;-45